Time;durP1;ratioP1;P1;durP2;ratioP2;P2;SDS_P1;SDS_P2;PMS_P1;PMS_P2;Temp;Humidity;BMP_temperature;BMP_pressure;BME280_temperature;BME280_humidity;BME280_pressure;Samples;Min_cycle;Max_cycle;Signal;HPM_P1;HPM_P2
2021/08/21 00:00:09;;;;;;;5.03;2.50;;;14.50;99.90;;;15.69;100.00;98393.69;4945032;29;20502;-77
2021/08/21 00:02:39;;;;;;;2.90;1.77;;;14.40;99.90;;;15.64;100.00;98401.41;4945816;29;20574;-77
2021/08/21 00:05:09;;;;;;;8.73;2.23;;;14.30;99.90;;;15.68;100.00;98397.34;4941292;29;20478;-77
2021/08/21 00:07:38;;;;;;;2.50;2.00;;;14.50;99.90;;;15.66;100.00;98399.38;4940597;28;20548;-77
2021/08/21 00:10:09;;;;;;;3.90;1.90;;;14.50;99.90;;;15.58;100.00;98397.81;4944195;29;20536;-77
2021/08/21 00:12:38;;;;;;;2.47;1.90;;;14.30;99.90;;;15.65;100.00;98403.03;4942541;29;20573;-77
2021/08/21 00:15:13;;;;;;;1.70;1.60;;;14.40;99.90;;;15.59;100.00;98397.56;4936878;29;20958;-77
2021/08/21 00:17:43;;;;;;;9.23;2.10;;;14.40;99.90;;;15.60;100.00;98401.84;4936077;29;20516;-77
2021/08/21 00:20:12;;;;;;;10.23;2.30;;;14.40;99.90;;;15.57;100.00;98398.81;4946593;29;20502;-77
2021/08/21 00:22:40;;;;;;;2.00;1.80;;;14.40;99.90;;;15.56;100.00;98405.91;4946215;29;22941;-77
2021/08/21 00:25:13;;;;;;;2.40;1.80;;;14.40;99.90;;;15.54;100.00;98405.31;4943194;29;20529;-77
2021/08/21 00:27:43;;;;;;;1.60;1.40;;;14.30;99.90;;;15.52;100.00;98404.72;4943601;29;20473;-77
2021/08/21 00:30:13;;;;;;;1.90;1.70;;;14.30;99.90;;;15.47;100.00;98404.50;4941836;29;20474;-77
2021/08/21 00:32:43;;;;;;;4.43;1.80;;;14.20;99.90;;;15.52;100.00;98404.72;4950997;29;20868;-77
2021/08/21 00:35:13;;;;;;;4.17;1.83;;;14.30;99.90;;;15.49;100.00;98404.31;4943406;29;20881;-77
2021/08/21 00:37:42;;;;;;;2.37;1.80;;;14.30;99.90;;;15.48;100.00;98403.50;4942885;29;21025;-77
2021/08/21 00:40:12;;;;;;;8.33;1.67;;;14.30;99.90;;;15.43;100.00;98399.84;4941504;29;20482;-77
2021/08/21 00:42:40;;;;;;;3.20;1.80;;;14.20;99.90;;;15.41;100.00;98400.06;4947873;29;20966;-77
2021/08/21 00:45:10;;;;;;;3.20;1.77;;;14.20;99.90;;;15.35;100.00;98390.34;4934671;29;20533;-77
2021/08/21 00:47:39;;;;;;;2.57;1.83;;;14.10;99.90;;;15.29;100.00;98399.09;4942348;29;21017;-77
2021/08/21 00:50:10;;;;;;;2.73;1.87;;;14.00;99.90;;;15.33;100.00;98391.59;4946028;29;20601;-77
2021/08/21 00:52:39;;;;;;;2.50;2.00;;;14.20;99.90;;;15.33;100.00;98388.94;4940886;29;20494;-77
2021/08/21 00:55:10;;;;;;;2.17;1.60;;;14.20;99.90;;;15.32;100.00;98388.13;4933655;29;20626;-77
2021/08/21 00:57:38;;;;;;;4.60;2.10;;;14.10;99.90;;;15.25;100.00;98392.63;4935634;29;21048;-77
2021/08/21 01:00:09;;;;;;;1.93;1.50;;;14.00;99.90;;;15.29;100.00;98393.81;4936481;29;20517;-77
2021/08/21 01:02:39;;;;;;;7.30;2.33;;;14.10;99.90;;;15.27;100.00;98392.44;4943077;29;20496;-77
2021/08/21 01:05:14;;;;;;;1.70;1.60;;;14.00;99.90;;;15.26;100.00;98391.63;4943883;29;20577;-77
2021/08/21 01:07:44;;;;;;;4.90;1.50;;;14.00;99.90;;;15.23;100.00;98392.03;4943519;29;20474;-77
2021/08/21 01:10:17;;;;;;;5.70;1.70;;;14.00;99.90;;;15.17;100.00;98387.56;4942650;29;20501;-77
2021/08/21 01:12:50;;;;;;;3.90;1.77;;;13.90;99.90;;;15.19;100.00;98388.19;4944816;28;20943;-77
2021/08/21 01:15:20;;;;;;;5.73;1.77;;;14.00;99.90;;;15.19;100.00;98387.38;4940316;29;20517;-77
2021/08/21 01:17:52;;;;;;;1.70;1.53;;;14.00;99.90;;;15.11;100.00;98393.69;4945442;29;20506;-78
2021/08/21 01:20:26;;;;;;;5.60;1.97;;;13.90;99.90;;;15.07;100.00;98387.19;4942593;29;20525;-77
2021/08/21 01:22:55;;;;;;;2.00;1.73;;;14.00;99.90;;;15.03;100.00;98386.00;4938450;29;20543;-77
2021/08/21 01:25:27;;;;;;;1.87;1.70;;;13.90;99.90;;;15.04;100.00;98388.44;4941089;29;20525;-77
2021/08/21 01:27:57;;;;;;;1.70;1.40;;;13.90;99.90;;;15.02;100.00;98382.56;4940867;29;20773;-77
2021/08/21 01:30:26;;;;;;;8.50;1.63;;;13.80;99.90;;;14.90;100.00;98384.22;4946490;29;21018;-77
2021/08/21 01:32:55;;;;;;;1.60;1.50;;;13.60;99.90;;;14.86;100.00;98384.81;4938399;29;21266;-77
2021/08/21 01:35:23;;;;;;;4.70;2.10;;;13.50;99.90;;;14.90;100.00;98376.31;4943008;29;20477;-77
2021/08/21 01:37:52;;;;;;;2.00;1.47;;;13.70;99.90;;;14.89;100.00;98382.56;4946336;29;20489;-77
2021/08/21 01:40:21;;;;;;;6.07;2.97;;;13.70;99.90;;;14.88;100.00;98374.91;4940320;29;20507;-77
2021/08/21 01:42:49;;;;;;;3.50;1.77;;;13.60;99.90;;;14.88;100.00;98375.72;4938218;29;20545;-77
2021/08/21 01:45:19;;;;;;;4.23;1.50;;;13.60;99.90;;;14.75;100.00;98377.56;4938926;29;20517;-77
2021/08/21 01:47:48;;;;;;;2.70;1.63;;;13.50;99.90;;;14.75;100.00;98375.72;4934555;29;20493;-77
2021/08/21 01:50:20;;;;;;;1.90;1.70;;;13.60;99.90;;;14.81;100.00;98379.38;4943540;28;20474;-77
2021/08/21 01:52:51;;;;;;;1.80;1.37;;;13.60;99.90;;;14.74;100.00;98370.69;4939034;29;20525;-77
2021/08/21 01:55:21;;;;;;;1.93;1.43;;;13.50;99.90;;;14.68;100.00;98368.88;4944958;29;20497;-77
2021/08/21 01:57:50;;;;;;;2.20;1.63;;;13.40;99.90;;;14.70;100.00;98372.09;4945852;29;20501;-76
2021/08/21 02:00:27;;;;;;;2.47;1.50;;;13.50;99.90;;;14.74;100.00;98368.03;4945530;29;20842;-77
2021/08/21 02:02:57;;;;;;;3.73;1.30;;;13.50;99.90;;;14.75;100.00;98374.94;4931494;29;20478;-77
2021/08/21 02:05:26;;;;;;;1.70;1.50;;;13.50;99.90;;;14.69;100.00;98366.00;4950404;29;20477;-77
2021/08/21 02:07:54;;;;;;;2.07;1.70;;;13.50;99.90;;;14.63;100.00;98356.31;4948881;29;20989;-77
2021/08/21 02:10:24;;;;;;;1.87;1.47;;;13.40;99.90;;;14.68;100.00;98360.97;4942552;29;20473;-77
2021/08/21 02:12:52;;;;;;;1.90;1.50;;;13.40;99.90;;;14.61;100.00;98364.41;4945529;29;20498;-77
2021/08/21 02:15:22;;;;;;;4.03;1.50;;;13.40;99.90;;;14.66;100.00;98361.16;4943373;29;20497;-77
2021/08/21 02:17:51;;;;;;;5.00;1.47;;;13.50;99.90;;;14.65;100.00;98362.16;4942168;29;20985;-77
2021/08/21 02:20:20;;;;;;;4.67;1.67;;;13.60;99.90;;;14.66;100.00;98355.09;4949077;29;20473;-77
2021/08/21 02:22:48;;;;;;;1.90;1.40;;;13.60;99.90;;;14.64;100.00;98363.22;4932114;28;20510;-77
2021/08/21 02:25:17;;;;;;;3.40;1.60;;;13.50;99.90;;;14.66;100.00;98360.34;4942198;29;20493;-77
2021/08/21 02:27:56;;;;;;;11.30;1.60;;;13.50;99.90;;;14.51;100.00;98358.75;4947487;29;20465;-77
2021/08/21 02:30:26;;;;;;;1.70;1.30;;;13.30;99.90;;;14.50;100.00;98361.59;4942073;29;20970;-77
2021/08/21 02:32:54;;;;;;;4.43;1.57;;;13.30;99.90;;;14.54;100.00;98355.69;4941285;28;20514;-77
2021/08/21 02:35:22;;;;;;;1.70;1.30;;;13.40;99.90;;;14.56;100.00;98360.78;4936566;29;20502;-77
2021/08/21 02:37:51;;;;;;;8.17;1.40;;;13.40;99.90;;;14.54;100.00;98352.28;4942878;29;20497;-77
2021/08/21 02:40:20;;;;;;;3.20;1.70;;;13.40;99.90;;;14.57;100.00;98355.31;4941507;29;20493;-76
2021/08/21 02:42:50;;;;;;;7.87;1.77;;;13.50;99.90;;;14.54;100.00;98355.69;4942587;29;20509;-77
2021/08/21 02:45:18;;;;;;;3.07;1.67;;;13.40;99.90;;;14.54;100.00;98353.06;4945807;29;20512;-77
2021/08/21 02:47:48;;;;;;;1.40;1.23;;;13.40;99.90;;;14.48;100.00;98353.09;4941209;29;20466;-77
2021/08/21 02:50:17;;;;;;;2.50;1.40;;;13.40;99.90;;;14.48;100.00;98342.56;4945136;29;20505;-77
2021/08/21 02:52:46;;;;;;;5.20;1.60;;;13.40;99.90;;;14.51;100.00;98347.41;4952299;29;20927;-77
2021/08/21 02:55:14;;;;;;;2.27;1.60;;;13.50;99.90;;;14.54;100.00;98347.81;4945009;29;20524;-77
2021/08/21 02:57:42;;;;;;;4.57;1.60;;;13.40;99.90;;;14.48;100.00;98343.38;4947034;29;21130;-77
2021/08/21 03:00:12;;;;;;;2.53;1.50;;;13.40;99.90;;;14.53;100.00;98342.75;4949859;29;20552;-77
2021/08/21 03:02:41;;;;;;;2.60;1.73;;;13.40;99.90;;;14.47;100.00;98344.38;4946036;29;20465;-77
2021/08/21 03:05:11;;;;;;;2.00;1.73;;;13.30;99.90;;;14.37;100.00;98335.31;4942076;29;21334;-77
2021/08/21 03:07:40;;;;;;;1.50;1.30;;;13.20;99.90;;;14.33;100.00;98334.88;4949964;29;20469;-76
2021/08/21 03:10:10;;;;;;;3.47;1.47;;;13.10;99.90;;;14.33;100.00;98334.06;4941538;29;20513;-77
2021/08/21 03:12:38;;;;;;;2.80;1.53;;;13.10;99.90;;;14.35;100.00;98342.56;4944658;29;20838;-77
2021/08/21 03:15:07;;;;;;;1.70;1.50;;;13.20;99.90;;;14.33;100.00;98340.13;4942372;29;20846;-77
2021/08/21 03:17:36;;;;;;;1.73;1.37;;;13.20;99.90;;;14.29;100.00;98333.66;4949533;29;20563;-77
2021/08/21 03:20:07;;;;;;;3.07;1.70;;;13.10;99.90;;;14.31;100.00;98338.69;4938016;29;21073;-77
2021/08/21 03:22:37;;;;;;;2.57;1.27;;;13.10;99.90;;;14.29;100.00;98328.41;4950101;29;20509;-77
2021/08/21 03:25:06;;;;;;;5.73;1.77;;;13.20;99.90;;;14.32;100.00;98333.25;4945012;29;20567;-77
2021/08/21 03:27:34;;;;;;;2.07;1.40;;;13.20;99.90;;;14.31;100.00;98336.06;4939991;29;20501;-77
2021/08/21 03:30:04;;;;;;;1.53;1.43;;;13.10;99.90;;;14.31;100.00;98333.44;4943177;29;20963;-77
2021/08/21 03:32:32;;;;;;;1.70;1.30;;;13.10;99.90;;;14.32;100.00;98332.44;4947485;28;20490;-77
2021/08/21 03:35:01;;;;;;;1.63;1.40;;;13.20;99.90;;;14.30;100.00;98335.25;4942042;28;20951;-77
2021/08/21 03:37:30;;;;;;;2.27;1.43;;;13.20;99.90;;;14.24;100.00;98340.50;4946395;29;21053;-77
2021/08/21 03:40:00;;;;;;;8.40;1.47;;;13.10;99.90;;;14.25;100.00;98339.50;4940107;29;20501;-77
2021/08/21 03:42:28;;;;;;;3.57;1.70;;;13.00;99.90;;;14.25;100.00;98348.22;4939405;29;20474;-75
2021/08/21 03:44:57;;;;;;;4.07;2.00;;;13.10;99.90;;;14.26;100.00;98341.97;4947450;29;20506;-78
2021/08/21 03:47:25;;;;;;;2.43;1.70;;;13.20;99.90;;;14.26;100.00;98341.97;4938253;29;20502;-77
2021/08/21 03:49:54;;;;;;;2.20;1.57;;;13.20;99.90;;;14.27;100.00;98346.19;4944276;29;20945;-77
2021/08/21 03:52:22;;;;;;;4.40;1.70;;;13.20;99.90;;;14.23;100.00;98338.91;4945375;29;20819;-77
2021/08/21 03:54:51;;;;;;;2.43;1.50;;;13.10;99.90;;;14.12;100.00;98342.97;4942835;29;20478;-76
2021/08/21 03:57:20;;;;;;;2.40;1.73;;;12.90;99.90;;;14.10;100.00;98339.72;4939347;29;20473;-76
2021/08/21 03:59:49;;;;;;;3.77;1.40;;;12.90;99.90;;;14.15;100.00;98347.81;4948959;29;20504;-76
2021/08/21 04:02:18;;;;;;;1.50;1.40;;;13.00;99.90;;;14.12;100.00;98340.34;4951669;29;20485;-76
2021/08/21 04:04:46;;;;;;;2.07;1.60;;;13.00;99.90;;;14.09;100.00;98338.13;4944232;29;20618;-76
2021/08/21 04:07:17;;;;;;;2.20;1.50;;;12.90;99.90;;;14.04;100.00;98346.59;4951935;29;20989;-76
2021/08/21 04:09:45;;;;;;;1.47;1.37;;;12.80;99.90;;;14.07;100.00;98350.63;4937033;29;20474;-76
2021/08/21 04:12:16;;;;;;;3.03;1.50;;;12.90;99.90;;;14.10;100.00;98348.41;4941253;29;20478;-76
2021/08/21 04:14:46;;;;;;;4.00;1.60;;;13.00;99.90;;;14.12;100.00;98358.75;4945266;29;20509;-76
2021/08/21 04:17:14;;;;;;;1.27;1.17;;;13.10;99.90;;;14.12;100.00;98350.84;4943545;29;20483;-76
2021/08/21 04:19:43;;;;;;;1.90;1.67;;;13.10;99.90;;;14.14;100.00;98356.72;4944670;29;21017;-76
2021/08/21 04:22:11;;;;;;;2.07;1.53;;;13.00;99.90;;;14.14;100.00;98364.59;4947716;29;20545;-79
2021/08/21 04:24:40;;;;;;;2.60;1.50;;;13.00;99.90;;;14.16;100.00;98362.56;4943517;29;20557;-76
2021/08/21 04:27:08;;;;;;;1.60;1.50;;;13.00;99.90;;;14.15;100.00;98362.78;4939629;29;20926;-75
2021/08/21 04:29:36;;;;;;;2.40;1.40;;;13.00;99.90;;;14.17;100.00;98366.00;4942091;29;20930;-75
2021/08/21 04:32:07;;;;;;;4.30;1.60;;;13.10;99.90;;;14.23;100.00;98363.38;4941193;29;20510;-75
2021/08/21 04:34:36;;;;;;;5.83;1.67;;;13.10;99.90;;;14.23;100.00;98363.38;4950653;29;20944;-79
2021/08/21 04:37:06;;;;;;;2.43;1.60;;;13.10;99.90;;;14.24;100.00;98362.38;4944247;29;20474;-76
2021/08/21 04:39:34;;;;;;;1.87;1.40;;;13.20;99.90;;;14.24;100.00;98365.00;4937334;29;20528;-76
2021/08/21 04:42:03;;;;;;;2.83;1.43;;;13.20;99.90;;;14.28;100.00;98362.78;4949527;29;20485;-76
2021/08/21 04:44:32;;;;;;;6.90;1.50;;;13.30;99.90;;;14.33;100.00;98360.38;4951203;28;20579;-76
2021/08/21 04:47:00;;;;;;;2.13;1.60;;;13.30;99.90;;;14.31;100.00;98352.66;4945615;28;20502;-77
2021/08/21 04:49:30;;;;;;;3.17;1.63;;;13.40;99.90;;;14.29;100.00;98352.06;4950090;29;20826;-77
2021/08/21 04:51:59;;;;;;;1.30;1.20;;;13.40;99.90;;;14.28;100.00;98354.88;4953300;29;20957;-77
2021/08/21 04:54:27;;;;;;;4.57;1.40;;;13.30;99.90;;;14.26;100.00;98355.09;4953538;29;20512;-77
2021/08/21 04:56:56;;;;;;;2.57;1.50;;;13.30;99.90;;;14.30;100.00;98356.28;4952383;29;20481;-77
2021/08/21 04:59:24;;;;;;;2.07;1.60;;;13.40;99.90;;;14.33;100.00;98361.19;4950645;29;20474;-77
2021/08/21 05:01:53;;;;;;;2.50;1.67;;;13.40;99.90;;;14.30;100.00;98361.56;4952682;29;20513;-77
2021/08/21 05:04:21;;;;;;;1.70;1.43;;;13.30;99.90;;;14.34;100.00;98354.09;4948988;29;20547;-77
2021/08/21 05:06:51;;;;;;;6.37;1.70;;;13.30;99.90;;;14.37;100.00;98351.88;4947661;29;20473;-77
2021/08/21 05:09:20;;;;;;;3.90;1.63;;;13.30;99.90;;;14.34;100.00;98354.91;4952774;29;20476;-77
2021/08/21 05:11:48;;;;;;;2.03;1.60;;;13.40;99.90;;;14.34;100.00;98352.28;4951942;28;20501;-76
2021/08/21 05:14:16;;;;;;;1.60;1.50;;;13.40;99.90;;;14.32;100.00;98349.03;4952670;29;21220;-77
2021/08/21 05:16:46;;;;;;;1.50;1.23;;;13.30;99.90;;;14.29;100.00;98354.69;4945522;29;20559;-77
2021/08/21 05:19:25;;;;;;;1.70;1.57;;;13.30;99.90;;;14.30;100.00;98356.28;4952858;29;21090;-77
2021/08/21 05:21:58;;;;;;;4.40;1.30;;;13.40;99.90;;;14.32;100.00;98351.66;4952963;29;20470;-76
2021/08/21 05:24:26;;;;;;;2.03;1.60;;;13.50;99.90;;;14.31;100.00;98357.94;4942449;29;20498;-77
2021/08/21 05:26:55;;;;;;;3.60;1.60;;;13.50;99.90;;;14.33;100.00;98353.28;4951079;29;20575;-76
2021/08/21 05:29:23;;;;;;;1.50;1.40;;;13.40;99.90;;;14.27;100.00;98351.44;4951888;28;20505;-77
2021/08/21 05:31:54;;;;;;;2.67;1.87;;;13.30;99.90;;;14.23;100.00;98354.69;4947242;29;21044;-77
2021/08/21 05:34:22;;;;;;;3.30;1.50;;;13.20;99.90;;;14.28;100.00;98353.06;4949862;29;20505;-77
2021/08/21 05:36:51;;;;;;;1.80;1.60;;;13.20;99.90;;;14.21;100.00;98352.25;4947088;29;21017;-76
2021/08/21 05:39:20;;;;;;;6.30;1.30;;;13.10;99.90;;;14.18;100.00;98352.66;4952742;29;20482;-77
2021/08/21 05:41:49;;;;;;;4.20;1.33;;;13.10;99.90;;;14.21;100.00;98357.53;4945513;29;20536;-77
2021/08/21 05:44:17;;;;;;;1.93;1.50;;;13.10;99.90;;;14.27;100.00;98356.72;4947239;29;20533;-76
2021/08/21 05:46:46;;;;;;;2.43;1.97;;;13.20;99.90;;;14.28;100.00;98352.25;4953064;29;20469;-77
2021/08/21 05:49:14;;;;;;;1.70;1.33;;;13.20;99.90;;;14.31;100.00;98351.84;4947157;29;20549;-77
2021/08/21 05:51:43;;;;;;;1.90;1.30;;;13.30;99.90;;;14.30;100.00;98345.00;4949973;29;20506;-77
2021/08/21 05:54:11;;;;;;;2.80;1.67;;;13.20;99.90;;;14.23;100.00;98344.97;4946329;29;20537;-77
2021/08/21 05:56:41;;;;;;;1.73;1.53;;;13.10;99.90;;;14.18;100.00;98355.31;4952661;29;20515;-77
2021/08/21 05:59:09;;;;;;;1.93;1.70;;;13.10;99.90;;;14.24;100.00;98354.47;4949318;28;20477;-77
2021/08/21 06:01:38;;;;;;;3.67;1.60;;;13.20;99.90;;;14.27;100.00;98361.97;4953051;29;20504;-76
2021/08/21 06:04:08;;;;;;;2.27;1.90;;;13.20;99.90;;;14.28;100.00;98360.16;4946496;29;21005;-76
2021/08/21 06:06:37;;;;;;;4.03;1.87;;;13.10;99.90;;;14.28;100.00;98363.59;4953475;29;20477;-76
2021/08/21 06:09:05;;;;;;;2.07;1.80;;;13.20;99.90;;;14.33;100.00;98363.81;4956419;29;20986;-76
2021/08/21 06:11:34;;;;;;;7.53;1.90;;;13.20;99.90;;;14.31;100.00;98357.94;4954103;29;20481;-76
2021/08/21 06:14:04;;;;;;;2.73;1.87;;;13.20;99.90;;;14.28;100.00;98362.78;4942066;29;20533;-77
2021/08/21 06:16:32;;;;;;;2.20;1.90;;;13.10;99.90;;;14.30;100.00;98371.28;4950572;29;20473;-76
2021/08/21 06:19:01;;;;;;;2.03;1.70;;;13.20;99.90;;;14.34;100.00;98373.34;4956147;29;20500;-77
2021/08/21 06:21:29;;;;;;;4.73;2.33;;;13.20;99.90;;;14.33;100.00;98370.88;4956502;29;20485;-77
2021/08/21 06:23:57;;;;;;;1.97;1.50;;;13.20;99.90;;;14.39;100.00;98365.66;4953085;29;20980;-77
2021/08/21 06:26:26;;;;;;;2.80;1.60;;;13.30;99.90;;;14.46;100.00;98366.47;4950572;29;20505;-76
2021/08/21 06:28:54;;;;;;;3.50;2.17;;;13.40;99.90;;;14.55;100.00;98361.78;4948041;28;20872;-77
2021/08/21 06:31:24;;;;;;;2.10;1.77;;;13.50;99.90;;;14.63;100.00;98358.13;4944486;29;20512;-77
2021/08/21 06:33:53;;;;;;;5.67;1.73;;;13.60;99.90;;;14.63;100.00;98368.66;4956343;29;20477;-77
2021/08/21 06:36:21;;;;;;;5.70;2.00;;;13.60;99.90;;;14.72;100.00;98362.97;4954537;28;20508;-77
2021/08/21 06:38:50;;;;;;;2.73;1.90;;;13.70;99.90;;;14.79;100.00;98363.75;4954794;28;21000;-77
2021/08/21 06:41:18;;;;;;;3.07;1.97;;;13.80;99.90;;;14.85;100.00;98364.78;4952334;29;20485;-77
2021/08/21 06:43:47;;;;;;;10.13;1.63;;;13.90;99.90;;;14.90;100.00;98367.59;4955002;29;20528;-77
2021/08/21 06:46:15;;;;;;;3.83;2.30;;;14.00;99.90;;;14.95;100.00;98370.44;4955676;29;20473;-77
2021/08/21 06:48:45;;;;;;;14.00;2.10;;;14.00;99.90;;;15.00;100.00;98371.41;4955857;29;21308;-77
2021/08/21 06:51:14;;;;;;;2.33;1.80;;;14.10;99.90;;;15.07;100.00;98369.56;4953086;29;20524;-77
2021/08/21 06:53:42;;;;;;;3.03;2.33;;;14.10;99.90;;;15.15;100.00;98360.63;4955760;29;20477;-77
2021/08/21 06:56:11;;;;;;;2.87;1.93;;;14.20;99.90;;;15.21;100.00;98365.06;4954628;29;20576;-77
2021/08/21 06:58:39;;;;;;;1.97;1.77;;;14.30;99.90;;;15.27;100.00;98366.84;4950545;29;20477;-77
2021/08/21 07:01:11;;;;;;;4.40;2.23;;;14.40;99.90;;;15.32;100.00;98366.25;4954793;29;20532;-76
2021/08/21 07:03:40;;;;;;;4.80;1.57;;;14.40;99.90;;;15.38;100.00;98366.22;4955153;29;20962;-77
2021/08/21 07:06:10;;;;;;;1.87;1.70;;;14.50;99.90;;;15.43;100.00;98361.13;4955625;28;20473;-77
2021/08/21 07:08:38;;;;;;;3.93;2.20;;;14.50;99.90;;;15.50;100.00;98375.13;4955395;28;20473;-77
2021/08/21 07:11:07;;;;;;;6.20;2.70;;;14.70;99.90;;;15.56;100.00;98366.38;4954968;29;20501;-77
2021/08/21 07:13:35;;;;;;;4.70;1.90;;;14.70;99.90;;;15.64;100.00;98359.22;4950952;29;21021;-77
2021/08/21 07:16:04;;;;;;;4.47;2.20;;;14.80;99.90;;;15.70;100.00;98355.75;4945806;29;20510;-77
2021/08/21 07:18:33;;;;;;;4.70;2.80;;;14.80;99.90;;;15.78;100.00;98358.94;4951012;29;20844;-77
2021/08/21 07:21:02;;;;;;;2.53;2.13;;;14.90;99.90;;;15.85;100.00;98351.81;4951327;29;20473;-77
2021/08/21 07:23:31;;;;;;;2.80;2.10;;;15.00;99.90;;;15.93;100.00;98350.75;4954769;29;20480;-76
2021/08/21 07:26:00;;;;;;;4.77;2.53;;;15.10;99.90;;;15.99;100.00;98353.34;4954867;29;20513;-77
2021/08/21 07:28:28;;;;;;;3.27;2.23;;;15.20;99.90;;;16.07;100.00;98357.53;4948633;28;20520;-77
2021/08/21 07:30:57;;;;;;;3.37;2.60;;;15.20;99.90;;;16.14;100.00;98360.91;4954170;29;20532;-77
2021/08/21 07:33:26;;;;;;;3.43;2.50;;;15.30;99.90;;;16.20;100.00;98357.44;4952123;29;20522;-77
2021/08/21 07:35:54;;;;;;;5.17;2.20;;;15.50;99.90;;;16.27;100.00;98350.28;4953604;29;20588;-77
2021/08/21 07:38:23;;;;;;;8.03;2.80;;;15.50;99.90;;;16.34;100.00;98351.03;4954578;29;20477;-76
2021/08/21 07:40:53;;;;;;;4.70;2.70;;;15.60;99.90;;;16.41;100.00;98346.50;4954548;29;20473;-77
2021/08/21 07:43:21;;;;;;;2.90;2.53;;;15.70;99.90;;;16.47;100.00;98348.28;4947087;29;20537;-77
2021/08/21 07:45:50;;;;;;;4.83;3.53;;;15.70;99.90;;;16.55;100.00;98344.56;4953991;29;20478;-77
2021/08/21 07:48:19;;;;;;;3.10;2.60;;;15.80;99.90;;;16.62;100.00;98347.97;4954495;29;20484;-77
2021/08/21 07:50:47;;;;;;;15.40;3.37;;;15.90;99.90;;;16.70;100.00;98349.50;4944453;29;20524;-77
2021/08/21 07:53:16;;;;;;;4.93;3.13;;;16.00;99.90;;;16.79;100.00;98349.03;4950781;29;20516;-77
2021/08/21 07:55:45;;;;;;;4.50;2.80;;;16.10;99.90;;;16.85;100.00;98353.41;4954634;29;20873;-77
2021/08/21 07:58:15;;;;;;;5.20;3.03;;;16.20;99.90;;;16.93;100.00;98362.91;4952222;29;20466;-77
2021/08/21 08:00:43;;;;;;;4.40;2.93;;;16.20;99.90;;;16.98;100.00;98363.03;4953121;29;20529;-76
2021/08/21 08:03:14;;;;;;;3.70;3.00;;;16.30;99.90;;;17.03;100.00;98358.72;4950432;28;20816;-77
2021/08/21 08:05:44;;;;;;;5.97;2.63;;;16.40;99.90;;;17.10;100.00;98362.09;4953689;29;20535;-77
2021/08/21 08:08:12;;;;;;;3.77;2.90;;;16.40;99.90;;;17.15;100.00;98355.34;4954013;29;20478;-78
2021/08/21 08:10:41;;;;;;;3.00;2.70;;;16.40;99.90;;;17.21;100.00;98354.44;4948899;29;20473;-78
2021/08/21 08:13:10;;;;;;;3.90;2.60;;;16.50;99.90;;;17.26;100.00;98355.38;4950072;29;20696;-78
2021/08/21 08:15:40;;;;;;;4.17;3.50;;;16.60;99.90;;;17.34;100.00;98351.66;4952614;29;20579;-78
2021/08/21 08:18:08;;;;;;;5.60;3.00;;;16.60;99.90;;;17.38;100.00;98358.09;4952005;29;20505;-78
2021/08/21 08:20:37;;;;;;;7.03;3.13;;;16.70;99.90;;;17.45;100.00;98353.53;4952840;28;20490;-77
2021/08/21 08:23:06;;;;;;;4.57;2.90;;;16.80;99.90;;;17.51;100.00;98347.34;4949390;29;20501;-78
2021/08/21 08:25:34;;;;;;;3.50;2.50;;;16.90;99.90;;;17.58;100.00;98348.09;4941819;29;20914;-78
2021/08/21 08:28:03;;;;;;;2.97;2.23;;;16.90;99.90;;;17.63;100.00;98344.78;4946001;28;20513;-78
2021/08/21 08:30:32;;;;;;;3.30;2.60;;;17.00;99.90;;;17.69;100.00;98349.19;4954145;29;20489;-79
2021/08/21 08:33:02;;;;;;;5.13;2.30;;;17.00;99.90;;;17.75;100.00;98342.97;4953921;29;20532;-79
2021/08/21 08:35:30;;;;;;;5.40;2.90;;;17.10;99.90;;;17.80;100.00;98346.59;4953555;29;20556;-78
2021/08/21 08:37:59;;;;;;;3.30;2.27;;;17.10;99.90;;;17.85;100.00;98341.41;4954077;29;20520;-79
2021/08/21 08:40:28;;;;;;;3.63;2.80;;;17.20;99.90;;;17.91;100.00;98345.00;4948417;29;20512;-79
2021/08/21 08:43:03;;;;;;;3.20;2.40;;;17.20;99.90;;;17.98;100.00;98337.75;4951225;29;20958;-78
2021/08/21 08:45:32;;;;;;;3.10;2.80;;;17.30;99.90;;;18.04;100.00;98342.16;4940552;29;20484;-78
2021/08/21 08:48:02;;;;;;;4.40;2.90;;;17.40;99.90;;;18.12;100.00;98338.38;4953515;28;20478;-78
2021/08/21 08:50:32;;;;;;;3.07;2.60;;;17.50;99.90;;;18.16;100.00;98348.25;4950160;29;20560;-79
2021/08/21 08:53:01;;;;;;;3.47;2.70;;;17.50;99.90;;;18.21;100.00;98337.81;4953717;29;20540;-79
2021/08/21 08:55:29;;;;;;;4.50;2.50;;;17.60;99.90;;;18.28;100.00;98338.50;4953477;29;20497;-79
2021/08/21 08:57:58;;;;;;;3.20;2.43;;;17.70;99.90;;;18.34;100.00;98334.94;4947080;29;20473;-79
2021/08/21 09:00:29;;;;;;;8.70;2.90;;;17.70;99.90;;;18.40;100.00;98344.59;4939374;29;20533;-79
2021/08/21 09:03:03;;;;;;;4.23;2.77;;;17.80;99.90;;;18.46;100.00;98343.72;4949714;29;21077;-78
2021/08/21 09:05:40;;;;;;;3.20;2.90;;;17.90;99.90;;;18.52;100.00;98345.47;4953170;29;20794;-79
2021/08/21 09:08:22;;;;;;;4.03;3.17;;;17.90;99.90;;;18.60;100.00;98341.66;4951236;29;20481;-78
2021/08/21 09:10:51;;;;;;;3.67;3.20;;;18.00;99.90;;;18.64;100.00;98348.09;4952993;29;20958;-78
2021/08/21 09:13:21;;;;;;;4.00;2.60;;;18.10;99.90;;;18.71;100.00;98342.69;4952467;29;20509;-78
2021/08/21 09:15:51;;;;;;;3.83;2.33;;;18.10;99.90;;;18.77;100.00;98336.47;4941537;29;21097;-78
2021/08/21 09:18:23;;;;;;;3.27;2.60;;;18.20;99.90;;;18.86;100.00;98335.06;4952914;29;20477;-79
2021/08/21 09:21:10;;;;;;;3.43;2.83;;;18.40;99.90;;;18.94;100.00;98338.19;4951460;29;20844;-79
2021/08/21 09:23:41;;;;;;;2.87;2.27;;;18.40;99.90;;;19.01;100.00;98336.19;4953233;29;20485;-79
2021/08/21 09:26:14;;;;;;;4.30;2.80;;;18.40;99.90;;;19.06;100.00;98340.78;4952533;28;20545;-78
2021/08/21 09:28:45;;;;;;;3.93;2.80;;;18.50;99.90;;;19.13;100.00;98335.34;4946704;28;20994;-79
2021/08/21 09:31:15;;;;;;;3.37;2.50;;;18.60;99.90;;;19.17;100.00;98331.19;4951878;29;20477;-79
2021/08/21 09:33:53;;;;;;;2.70;2.20;;;18.70;99.90;;;19.24;100.00;98337.16;4951785;28;20536;-79
2021/08/21 09:36:29;;;;;;;4.60;2.83;;;18.80;99.90;;;19.29;100.00;98331.97;4946560;29;20944;-78
2021/08/21 09:38:58;;;;;;;3.50;2.77;;;18.70;99.90;;;19.35;100.00;98334.50;4952993;29;20569;-79
2021/08/21 09:41:28;;;;;;;14.83;2.60;;;18.80;99.90;;;19.39;100.00;98334.81;4946428;29;20795;-78
2021/08/21 09:44:08;;;;;;;5.80;3.17;;;18.80;99.90;;;19.44;100.00;98335.75;4948870;29;20513;-78
2021/08/21 09:46:37;;;;;;;5.40;3.53;;;18.90;99.90;;;19.50;100.00;98336.66;4934302;29;20966;-79
2021/08/21 09:49:10;;;;;;;7.57;2.77;;;18.90;99.90;;;19.54;100.00;98333.28;4939610;29;20491;-78
2021/08/21 09:51:45;;;;;;;4.33;2.70;;;19.00;99.90;;;19.59;100.00;98328.09;4948006;29;20474;-78
2021/08/21 09:54:17;;;;;;;5.07;3.13;;;19.00;99.90;;;19.66;100.00;98327.13;4951802;29;20477;-78
2021/08/21 09:56:54;;;;;;;4.23;2.60;;;19.00;99.90;;;19.69;100.00;98321.34;4947773;29;20556;-78
2021/08/21 09:59:37;;;;;;;3.40;3.00;;;19.10;99.90;;;19.75;100.00;98323.84;4952587;28;20489;-78
2021/08/21 10:02:09;;;;;;;3.10;2.20;;;19.20;99.90;;;19.81;100.00;98314.13;4952729;29;20540;-78
2021/08/21 10:04:41;;;;;;;3.87;2.87;;;19.30;99.90;;;19.87;100.00;98311.31;4950598;28;20887;-78
2021/08/21 10:07:14;;;;;;;4.17;3.10;;;19.40;99.90;;;19.94;100.00;98309.31;4948054;29;20973;-78
2021/08/21 10:09:43;;;;;;;3.00;2.40;;;19.50;99.90;;;20.01;100.00;98314.47;4951656;29;20990;-78
2021/08/21 10:12:14;;;;;;;3.20;2.50;;;19.50;99.90;;;20.06;100.00;98309.25;4947037;29;20467;-78
2021/08/21 10:14:45;;;;;;;6.17;3.00;;;19.50;99.90;;;20.12;100.00;98312.78;4946604;29;21040;-78
2021/08/21 10:17:17;;;;;;;5.47;2.70;;;19.60;99.90;;;20.16;100.00;98309.41;4952342;29;20509;-78
2021/08/21 10:19:49;;;;;;;3.23;2.80;;;19.60;99.90;;;20.26;100.00;98308.75;4947003;29;20973;-78
2021/08/21 10:22:21;;;;;;;4.43;2.60;;;19.80;99.90;;;20.31;100.00;98299.03;4946880;29;20466;-78